Time;durP1;ratioP1;P1;durP2;ratioP2;P2;SDS_P1;SDS_P2;PMS_P1;PMS_P2;Temp;Humidity;BMP_temperature;BMP_pressure;BME280_temperature;BME280_humidity;BME280_pressure;Samples;Min_cycle;Max_cycle;Signal;HPM_P1;HPM_P2
2022/07/10 00:02:42;;;;;;;;;;;;;;;26.54;40.71;101075.88;4942479;29;19919;-77
2022/07/10 00:05:26;;;;;;;;;;;;;;;26.55;40.67;101069.91;4955717;28;19914;-77
2022/07/10 00:08:10;;;;;;;;;;;;;;;26.57;40.65;101061.09;4955849;29;20557;-77
2022/07/10 00:10:55;;;;;;;;;;;;;;;26.59;40.50;101064.28;4945390;29;19914;-78
2022/07/10 00:13:39;;;;;;;;;;;;;;;26.60;40.60;101068.66;4966966;28;19915;-78
2022/07/10 00:16:24;;;;;;;;;;;;;;;26.59;40.55;101059.50;4945878;29;19914;-77
2022/07/10 00:19:09;;;;;;;;;;;;;;;26.60;40.40;101066.66;4945258;29;19919;-78
2022/07/10 00:21:53;;;;;;;;;;;;;;;26.62;40.22;101063.44;4975549;28;19915;-77
2022/07/10 00:24:38;;;;;;;;;;;;;;;26.63;40.00;101053.84;4950373;29;19922;-76
2022/07/10 00:27:23;;;;;;;;;;;;;;;26.65;40.02;101060.63;4949033;29;19914;-76
2022/07/10 00:30:08;;;;;;;;;;;;;;;26.69;39.94;101063.38;4976027;28;20316;-76
2022/07/10 00:32:53;;;;;;;;;;;;;;;26.67;40.12;101060.19;4948469;29;20380;-76
2022/07/10 00:35:38;;;;;;;;;;;;;;;26.61;40.03;101056.28;4957292;29;19933;-76
2022/07/10 00:38:23;;;;;;;;;;;;;;;26.58;40.02;101052.31;4952756;28;19914;-77
2022/07/10 00:41:07;;;;;;;;;;;;;;;26.57;40.26;101049.94;4957171;29;19918;-75
2022/07/10 00:43:53;;;;;;;;;;;;;;;26.58;40.06;101052.31;4951932;28;19918;-77
2022/07/10 00:46:40;;;;;;;;;;;;;;;26.57;40.16;101061.91;4944418;29;20438;-77
2022/07/10 00:49:25;;;;;;;;;;;;;;;26.54;40.35;101057.16;4957361;29;19914;-77
2022/07/10 00:52:12;;;;;;;;;;;;;;;26.48;40.85;101047.66;4951467;29;19919;-77
2022/07/10 00:54:57;;;;;;;;;;;;;;;26.50;40.91;101052.84;4979112;28;19914;-77
2022/07/10 00:57:41;;;;;;;;;;;;;;;26.53;41.07;101054.78;4942027;29;20291;-75
2022/07/10 01:00:26;;;;;;;;;;;;;;;26.56;40.89;101045.59;4983577;28;19914;-75
2022/07/10 01:03:10;;;;;;;;;;;;;;;26.56;40.73;101042.81;4948052;28;19919;-76
2022/07/10 01:05:55;;;;;;;;;;;;;;;26.54;40.60;101046.00;4985932;28;20376;-76
2022/07/10 01:08:40;;;;;;;;;;;;;;;26.50;40.72;101039.69;4956749;29;20300;-77
2022/07/10 01:11:24;;;;;;;;;;;;;;;26.47;40.68;101037.69;4957161;29;19918;-75
2022/07/10 01:14:09;;;;;;;;;;;;;;;26.47;40.63;101034.91;4951887;28;19914;-76
2022/07/10 01:16:53;;;;;;;;;;;;;;;26.47;40.41;101034.13;4957287;29;19914;-77
2022/07/10 01:19:38;;;;;;;;;;;;;;;26.44;40.42;101032.97;4948981;29;19918;-77
2022/07/10 01:22:22;;;;;;;;;;;;;;;26.44;40.34;101032.97;4956341;29;19918;-77
2022/07/10 01:25:07;;;;;;;;;;;;;;;26.40;40.12;101026.63;4947673;28;19914;-77
2022/07/10 01:27:52;;;;;;;;;;;;;;;26.40;40.00;101037.78;4955542;29;20322;-75
2022/07/10 01:30:36;;;;;;;;;;;;;;;26.37;40.13;101025.47;4941250;29;19914;-77
2022/07/10 01:33:21;;;;;;;;;;;;;;;26.39;40.02;101023.06;4947025;28;19915;-77
2022/07/10 01:36:05;;;;;;;;;;;;;;;26.38;40.25;101015.09;4947953;29;19918;-77
2022/07/10 01:38:54;;;;;;;;;;;;;;;26.38;40.09;101015.09;4953833;29;20371;-77
2022/07/10 01:41:39;;;;;;;;;;;;;;;26.35;40.28;101016.75;4943234;29;20375;-76
2022/07/10 01:44:24;;;;;;;;;;;;;;;26.28;40.43;101011.22;4952513;28;19919;-75
2022/07/10 01:47:09;;;;;;;;;;;;;;;26.30;40.45;101008.03;4953206;29;19914;-76
2022/07/10 01:49:53;;;;;;;;;;;;;;;26.30;40.70;101008.03;4949003;29;20299;-76
2022/07/10 01:52:38;;;;;;;;;;;;;;;26.31;40.53;101002.03;4917849;29;19915;-76
2022/07/10 01:55:22;;;;;;;;;;;;;;;26.31;40.53;100999.22;4947447;29;19914;-76
2022/07/10 01:58:06;;;;;;;;;;;;;;;26.29;40.64;101000.88;4984302;28;19914;-77
2022/07/10 02:00:51;;;;;;;;;;;;;;;26.26;40.70;100996.13;4951496;29;19915;-76
2022/07/10 02:06:39;;;;;;;;;;;;;;;26.17;40.59;100988.22;4942722;29;19918;-74
2022/07/10 02:09:24;;;;;;;;;;;;;;;26.16;40.57;100983.06;4981952;28;19914;-75
2022/07/10 02:12:09;;;;;;;;;;;;;;;26.19;40.53;100996.16;4958723;28;19914;-77
2022/07/10 02:14:56;;;;;;;;;;;;;;;26.21;40.34;100985.41;4954820;28;19915;-77
2022/07/10 02:17:40;;;;;;;;;;;;;;;26.18;40.44;100987.00;4948209;29;20567;-76
2022/07/10 02:20:25;;;;;;;;;;;;;;;26.18;40.31;100987.00;4955522;28;19915;-76
2022/07/10 02:23:09;;;;;;;;;;;;;;;26.19;40.36;100991.38;4957444;28;19919;-76
2022/07/10 02:25:53;;;;;;;;;;;;;;;26.14;40.40;100982.69;4955769;29;19914;-76
2022/07/10 02:28:38;;;;;;;;;;;;;;;26.11;40.48;100986.31;4955582;29;19914;-77
2022/07/10 02:31:22;;;;;;;;;;;;;;;26.05;40.45;100987.97;4947439;29;19915;-75
2022/07/10 02:34:07;;;;;;;;;;;;;;;26.04;40.39;100989.97;4952888;28;19914;-76
2022/07/10 02:36:52;;;;;;;;;;;;;;;26.01;40.35;100985.19;4986068;28;20299;-75
2022/07/10 02:39:36;;;;;;;;;;;;;;;26.04;40.19;100983.59;4934600;29;19914;-76
2022/07/10 02:42:21;;;;;;;;;;;;;;;26.09;40.00;100975.56;4955315;29;19915;-76
2022/07/10 02:45:06;;;;;;;;;;;;;;;26.11;40.01;100972.38;4946773;29;19918;-74
2022/07/10 02:47:50;;;;;;;;;;;;;;;26.05;40.08;100971.25;4954954;29;19915;-75
2022/07/10 02:50:35;;;;;;;;;;;;;;;26.11;39.71;100975.16;4982495;28;19914;-76
2022/07/10 02:53:19;;;;;;;;;;;;;;;26.05;39.97;100968.44;4986430;28;20441;-77
2022/07/10 02:56:04;;;;;;;;;;;;;;;26.01;39.92;100970.50;4953846;29;19923;-76
2022/07/10 02:58:48;;;;;;;;;;;;;;;25.97;40.03;100962.94;4949739;29;20318;-76
2022/07/10 03:01:33;;;;;;;;;;;;;;;25.96;40.02;100966.13;4973956;28;19914;-76
2022/07/10 03:04:17;;;;;;;;;;;;;;;25.95;40.05;100959.00;4976926;28;19919;-77
2022/07/10 03:07:02;;;;;;;;;;;;;;;25.92;40.16;100960.59;4948900;28;20541;-78
2022/07/10 03:09:46;;;;;;;;;;;;;;;25.89;39.85;100953.09;4982587;28;19914;-76
2022/07/10 03:12:31;;;;;;;;;;;;;;;25.87;39.86;100952.69;4985910;28;19916;-77
2022/07/10 03:15:15;;;;;;;;;;;;;;;25.90;39.83;100954.66;4955020;28;19914;-77
2022/07/10 03:17:59;;;;;;;;;;;;;;;25.90;39.82;100951.88;4954292;29;19914;-76
2022/07/10 03:20:44;;;;;;;;;;;;;;;25.91;39.75;100958.22;4981838;28;19915;-76
2022/07/10 03:23:28;;;;;;;;;;;;;;;25.88;39.63;100950.69;4946811;28;19918;-75
2022/07/10 03:26:13;;;;;;;;;;;;;;;25.83;39.84;100954.72;4973094;28;19915;-75
2022/07/10 03:28:57;;;;;;;;;;;;;;;25.83;39.74;100962.31;4985664;28;19914;-77
2022/07/10 03:31:42;;;;;;;;;;;;;;;25.83;39.62;100965.88;4953992;29;20383;-75
2022/07/10 03:34:27;;;;;;;;;;;;;;;25.83;39.43;100956.72;4940793;28;19918;-73
2022/07/10 03:37:11;;;;;;;;;;;;;;;25.79;39.69;100958.75;4953797;29;19914;-76
2022/07/10 03:39:56;;;;;;;;;;;;;;;25.79;39.64;100956.78;4945680;29;20307;-75
2022/07/10 03:42:40;;;;;;;;;;;;;;;25.79;39.62;100961.53;4947188;29;19914;-76
2022/07/10 03:45:24;;;;;;;;;;;;;;;25.79;39.68;100956.78;4953658;28;19926;-75
2022/07/10 03:48:09;;;;;;;;;;;;;;;25.77;39.91;100955.59;4940792;29;19918;-77
2022/07/10 03:50:53;;;;;;;;;;;;;;;25.79;39.78;100958.75;4949876;28;19914;-74
2022/07/10 03:53:38;;;;;;;;;;;;;;;25.77;39.66;100950.00;4958113;28;19915;-76
2022/07/10 03:59:28;;;;;;;;;;;;;;;25.74;39.72;100948.06;4957846;29;19914;-77
2022/07/10 04:02:12;;;;;;;;;;;;;;;25.74;39.78;100948.84;4955451;29;19918;-75
2022/07/10 04:04:57;;;;;;;;;;;;;;;25.73;39.82;100954.84;4977227;23;19923;-79
2022/07/10 04:07:41;;;;;;;;;;;;;;;25.74;39.79;100945.28;4947069;29;19918;-78
2022/07/10 04:10:26;;;;;;;;;;;;;;;25.72;40.06;100942.91;4971623;28;19914;-78
2022/07/10 04:13:11;;;;;;;;;;;;;;;25.74;39.95;100948.06;4976309;28;20307;-78
2022/07/10 04:15:55;;;;;;;;;;;;;;;25.74;40.03;100945.28;4955314;28;19915;-77
2022/07/10 04:18:40;;;;;;;;;;;;;;;25.73;39.91;100938.91;4939847;29;19915;-78
2022/07/10 04:21:24;;;;;;;;;;;;;;;25.71;39.79;100932.94;4960160;28;19918;-79
2022/07/10 04:24:09;;;;;;;;;;;;;;;25.67;40.09;100936.97;4967577;28;19918;-79
2022/07/10 04:26:53;;;;;;;;;;;;;;;25.71;40.09;100932.94;4944834;28;19918;-78
2022/07/10 04:29:38;;;;;;;;;;;;;;;25.73;39.99;100924.19;4934058;29;19914;-79
2022/07/10 04:32:22;;;;;;;;;;;;;;;25.71;39.88;100930.16;4943155;29;19915;-78
2022/07/10 04:35:06;;;;;;;;;;;;;;;25.61;39.85;100916.34;4950462;28;20407;-78
2022/07/10 04:37:51;;;;;;;;;;;;;;;25.74;39.95;100926.56;4944547;29;19914;-78
2022/07/10 04:40:36;;;;;;;;;;;;;;;25.75;39.81;100930.91;4952582;28;19915;-78
2022/07/10 04:43:20;;;;;;;;;;;;;;;25.70;40.11;100919.47;4946701;29;19922;-78
2022/07/10 04:46:06;;;;;;;;;;;;;;;25.67;39.99;100915.47;4944455;29;19918;-79
2022/07/10 04:48:51;;;;;;;;;;;;;;;25.70;40.10;100919.47;4955785;29;19914;-79
2022/07/10 04:51:36;;;;;;;;;;;;;;;25.68;40.16;100910.72;4960675;28;19914;-79
2022/07/10 04:54:20;;;;;;;;;;;;;;;25.71;40.13;100909.88;4959742;28;19918;-80
2022/07/10 04:57:05;;;;;;;;;;;;;;;25.68;40.04;100900.34;4963085;28;19919;-80
2022/07/10 04:59:49;;;;;;;;;;;;;;;25.62;40.36;100906.78;4954056;29;20399;-80
2022/07/10 05:02:34;;;;;;;;;;;;;;;25.59;40.48;100896.47;4950539;28;19914;-80
2022/07/10 05:05:19;;;;;;;;;;;;;;;25.31;40.65;100894.72;4958966;29;20383;-79
2022/07/10 05:08:03;;;;;;;;;;;;;;;24.76;42.33;100892.72;4955340;29;19914;-78
2022/07/10 05:10:48;;;;;;;;;;;;;;;24.59;42.34;100886.06;4942958;29;20327;-76
2022/07/10 05:13:32;;;;;;;;;;;;;;;24.36;42.79;100888.59;4961918;28;19940;-77
2022/07/10 05:16:17;;;;;;;;;;;;;;;24.26;42.83;100878.31;4960592;29;19914;-76
2022/07/10 05:19:01;;;;;;;;;;;;;;;24.28;43.28;100881.47;4957819;29;19914;-76
2022/07/10 05:21:46;;;;;;;;;;;;;;;24.27;43.43;100880.69;4939277;29;20298;-76
2022/07/10 05:24:34;;;;;;;;;;;;;;;24.26;43.72;100878.31;4949407;29;20299;-76
2022/07/10 05:27:20;;;;;;;;;;;;;;;24.21;43.46;100879.53;4956935;28;19915;-77
2022/07/10 05:30:04;;;;;;;;;;;;;;;24.30;43.18;100867.97;4939850;29;19918;-76
2022/07/10 05:32:49;;;;;;;;;;;;;;;24.24;43.42;100875.13;4942296;29;19915;-76
2022/07/10 05:35:33;;;;;;;;;;;;;;;24.25;43.35;100876.72;4950140;28;19931;-77
2022/07/10 05:38:18;;;;;;;;;;;;;;;24.30;43.20;100867.97;4954985;28;20372;-77
2022/07/10 05:41:02;;;;;;;;;;;;;;;24.46;43.20;100867.47;4937036;29;20307;-76
2022/07/10 05:43:47;;;;;;;;;;;;;;;24.42;44.00;100872.28;4936866;29;19923;-76
2022/07/10 05:46:31;;;;;;;;;;;;;;;24.55;44.25;100873.38;4942904;29;20294;-77
2022/07/10 05:49:15;;;;;;;;;;;;;;;24.66;44.45;100874.91;4954007;29;19914;-77
2022/07/10 05:52:00;;;;;;;;;;;;;;;24.73;44.17;100873.28;4945249;29;19919;-76
2022/07/10 05:54:44;;;;;;;;;;;;;;;24.87;44.13;100873.19;4944018;28;19915;-76
2022/07/10 05:57:31;;;;;;;;;;;;;;;24.92;43.89;100879.13;4952234;29;20565;-76
2022/07/10 06:00:15;;;;;;;;;;;;;;;24.93;43.86;100872.38;4947164;28;19915;-76
2022/07/10 06:03:00;;;;;;;;;;;;;;;25.02;44.06;100871.91;4952969;29;19915;-76
2022/07/10 06:05:44;;;;;;;;;;;;;;;25.11;44.01;100875.00;4956484;28;20295;-76
2022/07/10 06:08:28;;;;;;;;;;;;;;;25.14;43.73;100871.41;4931637;29;19931;-77
2022/07/10 06:11:13;;;;;;;;;;;;;;;25.13;43.97;100872.59;4953024;29;19914;-76
2022/07/10 06:13:57;;;;;;;;;;;;;;;25.24;43.77;100864.16;4955209;28;19914;-76
2022/07/10 06:16:42;;;;;;;;;;;;;;;25.16;44.51;100860.63;4955284;29;19914;-77
2022/07/10 06:19:26;;;;;;;;;;;;;;;25.17;43.81;100856.66;4955145;29;19914;-77
2022/07/10 06:25:14;;;;;;;;;;;;;;;25.49;43.75;100857.16;4947617;28;20296;-77
2022/07/10 06:27:58;;;;;;;;;;;;;;;25.62;42.75;100851.88;4939260;28;20304;-76
2022/07/10 06:30:43;;;;;;;;;;;;;;;25.62;42.59;100857.44;4942334;29;19914;-76
2022/07/10 06:33:28;;;;;;;;;;;;;;;25.50;41.60;100855.94;4946495;28;19915;-77
2022/07/10 06:36:12;;;;;;;;;;;;;;;25.45;41.22;100852.81;4946744;29;19940;-76
2022/07/10 06:38:56;;;;;;;;;;;;;;;25.51;40.78;100851.16;4972055;28;19915;-76
2022/07/10 06:41:41;;;;;;;;;;;;;;;25.53;40.18;100848.75;4970284;28;19919;-76
2022/07/10 06:44:25;;;;;;;;;;;;;;;25.61;40.05;100855.06;4954685;28;19919;-76
2022/07/10 06:50:14;;;;;;;;;;;;;;;25.67;39.06;100848.63;4953124;28;19915;-76
2022/07/10 06:52:59;;;;;;;;;;;;;;;25.77;39.16;100850.50;4942426;29;19915;-76
2022/07/10 06:55:43;;;;;;;;;;;;;;;25.90;39.23;100853.56;4929199;29;19914;-77
2022/07/10 06:58:28;;;;;;;;;;;;;;;26.04;38.87;100850.59;4950448;28;19914;-77
2022/07/10 07:01:12;;;;;;;;;;;;;;;25.98;37.22;100841.09;4935181;29;19922;-76
2022/07/10 07:03:57;;;;;;;;;;;;;;;26.05;38.69;100846.59;4934864;29;19927;-77
2022/07/10 07:06:41;;;;;;;;;;;;;;;26.31;38.55;100848.66;4941171;29;19914;-76
2022/07/10 07:09:26;;;;;;;;;;;;;;;26.16;34.95;100840.88;4953759;29;19914;-76
2022/07/10 07:12:10;;;;;;;;;;;;;;;26.35;35.67;100835.47;4942600;29;19915;-76
2022/07/10 07:14:55;;;;;;;;;;;;;;;26.34;33.35;100839.47;4936979;29;19914;-77
2022/07/10 07:23:53;;;;;;;;;;;;;;;26.62;33.04;100829.06;4944722;28;20310;-76
2022/07/10 07:26:38;;;;;;;;;;;;;;;26.68;30.61;100827.38;4937606;29;19914;-77
2022/07/10 07:29:22;;;;;;;;;;;;;;;26.73;28.96;100824.13;4939968;29;20375;-76
2022/07/10 07:32:07;;;;;;;;;;;;;;;26.89;28.41;100820.72;4933534;29;20402;-76
2022/07/10 07:34:51;;;;;;;;;;;;;;;26.98;27.64;100824.53;4941158;29;20103;-77
2022/07/10 07:37:36;;;;;;;;;;;;;;;27.12;28.94;100824.28;4928035;29;19915;-77
2022/07/10 07:40:24;;;;;;;;;;;;;;;27.16;28.16;100833.41;4945412;28;19918;-78
2022/07/10 07:43:09;;;;;;;;;;;;;;;27.24;29.06;100825.69;4940056;29;19914;-76
2022/07/10 07:45:53;;;;;;;;;;;;;;;27.60;29.71;100825.84;4934222;29;19918;-76
2022/07/10 07:48:38;;;;;;;;;;;;;;;27.75;28.22;100821.53;4946515;29;20192;-77
2022/07/10 07:51:22;;;;;;;;;;;;;;;28.40;28.39;100821.75;4959501;28;19923;-75
2022/07/10 07:54:06;;;;;;;;;;;;;;;28.72;26.90;100818.25;4937259;29;19915;-77
2022/07/10 07:56:51;;;;;;;;;;;;;;;28.96;27.05;100824.44;4949802;28;20384;-76
2022/07/10 07:59:35;;;;;;;;;;;;;;;29.06;27.32;100817.78;4947496;28;19915;-77
2022/07/10 08:02:21;;;;;;;;;;;;;;;28.96;27.94;100825.22;4934108;29;19914;-76
2022/07/10 08:05:06;;;;;;;;;;;;;;;28.85;28.42;100825.50;4934315;29;19919;-77
2022/07/10 08:07:51;;;;;;;;;;;;;;;28.60;27.00;100814.09;4931261;29;20196;-76
2022/07/10 08:10:36;;;;;;;;;;;;;;;28.34;27.00;100818.69;4951773;29;19914;-76
2022/07/10 08:13:21;;;;;;;;;;;;;;;28.37;27.93;100817.03;4942101;29;19915;-76
2022/07/10 08:16:05;;;;;;;;;;;;;;;28.42;27.78;100810.94;4934623;29;20303;-76
2022/07/10 08:18:50;;;;;;;;;;;;;;;28.35;27.33;100806.28;4952028;29;19914;-77
2022/07/10 08:21:35;;;;;;;;;;;;;;;28.26;27.29;100800.50;4935477;29;19918;-76
2022/07/10 08:24:19;;;;;;;;;;;;;;;28.32;27.14;100795.97;4932090;29;19919;-77
2022/07/10 08:27:03;;;;;;;;;;;;;;;28.27;27.68;100795.69;4953478;28;19918;-77
2022/07/10 08:29:48;;;;;;;;;;;;;;;28.40;28.34;100793.78;4935511;29;19919;-76
2022/07/10 08:32:32;;;;;;;;;;;;;;;28.43;27.66;100788.13;4948398;29;19915;-76
2022/07/10 08:35:17;;;;;;;;;;;;;;;28.43;27.77;100784.53;4956813;28;19914;-77
2022/07/10 08:38:01;;;;;;;;;;;;;;;28.41;27.71;100784.16;4954695;28;19914;-76
2022/07/10 08:40:45;;;;;;;;;;;;;;;28.48;27.37;100778.41;4965104;28;19914;-76
2022/07/10 08:43:30;;;;;;;;;;;;;;;28.55;28.07;100774.66;4969352;28;19914;-77
2022/07/10 08:46:15;;;;;;;;;;;;;;;28.46;27.48;100775.25;4956892;29;20383;-77
2022/07/10 08:49:01;;;;;;;;;;;;;;;28.64;27.91;100777.63;4945196;29;19943;-76
2022/07/10 08:52:05;;;;;;;;;;;;;;;28.72;27.47;100776.25;4937000;29;19915;-76
2022/07/10 08:54:50;;;;;;;;;;;;;;;28.67;28.64;100771.16;4944898;28;19914;-76
2022/07/10 08:57:35;;;;;;;;;;;;;;;28.56;27.21;100765.03;4943269;28;20319;-77
2022/07/10 09:00:20;;;;;;;;;;;;;;;28.65;27.24;100763.19;4930152;28;19918;-76
2022/07/10 09:03:04;;;;;;;;;;;;;;;28.63;28.33;100762.06;4944541;28;19918;-76
2022/07/10 09:05:51;;;;;;;;;;;;;;;28.75;27.59;100770.56;4968915;28;19918;-77
2022/07/10 09:08:37;;;;;;;;;;;;;;;28.83;28.15;100759.97;4968150;28;19914;-77
2022/07/10 09:11:23;;;;;;;;;;;;;;;29.02;30.55;100769.47;4937599;29;19914;-77
2022/07/10 09:14:10;;;;;;;;;;;;;;;28.86;28.62;100762.69;4951477;28;19915;-76
2022/07/10 09:16:55;;;;;;;;;;;;;;;28.93;27.83;100764.50;4951023;29;19914;-76
2022/07/10 09:19:39;;;;;;;;;;;;;;;28.79;29.17;100765.69;4930665;29;20312;-77
2022/07/10 09:22:24;;;;;;;;;;;;;;;28.95;28.45;100764.09;4951218;28;19915;-77
2022/07/10 09:25:12;;;;;;;;;;;;;;;28.85;28.21;100769.50;4936786;29;19919;-77
2022/07/10 09:27:58;;;;;;;;;;;;;;;28.97;27.94;100765.22;4937030;29;19915;-76
2022/07/10 09:30:42;;;;;;;;;;;;;;;29.11;28.63;100769.63;4937512;29;19918;-76
2022/07/10 09:33:31;;;;;;;;;;;;;;;29.31;27.14;100761.91;4943464;29;19915;-76
2022/07/10 09:36:16;;;;;;;;;;;;;;;29.37;27.58;100762.16;4936744;29;19997;-76
2022/07/10 09:39:01;;;;;;;;;;;;;;;29.41;27.12;100748.84;4938146;29;19915;-77
2022/07/10 09:41:45;;;;;;;;;;;;;;;29.45;28.96;100755.13;4945830;29;20387;-77
2022/07/10 09:44:30;;;;;;;;;;;;;;;29.45;28.57;100749.53;4932471;29;20295;-77
2022/07/10 09:47:23;;;;;;;;;;;;;;;29.32;26.99;100753.06;4942570;29;19915;-77
2022/07/10 09:50:24;;;;;;;;;;;;;;;29.35;27.01;100750.63;4950665;28;19915;-76
2022/07/10 09:53:12;;;;;;;;;;;;;;;29.47;26.92;100755.47;4941829;29;19915;-77
2022/07/10 09:56:00;;;;;;;;;;;;;;;29.54;28.04;100760.88;4944077;29;20312;-76
2022/07/10 09:58:45;;;;;;;;;;;;;;;29.60;27.68;100757.09;4930597;29;19915;-77
2022/07/10 10:01:30;;;;;;;;;;;;;;;29.47;25.74;100745.03;4936152;29;19915;-77
2022/07/10 10:07:20;;;;;;;;;;;;;;;29.51;26.18;100748.53;4955048;23;19930;-77
2022/07/10 10:10:06;;;;;;;;;;;;;;;29.68;27.03;100752.03;4932195;28;19919;-74
2022/07/10 10:12:54;;;;;;;;;;;;;;;29.77;26.13;100738.94;4938703;29;19915;-76
2022/07/10 10:15:39;;;;;;;;;;;;;;;29.59;26.84;100729.50;4931168;29;19915;-76
2022/07/10 10:18:25;;;;;;;;;;;;;;;29.73;26.57;100737.47;4937757;29;19914;-78
2022/07/10 10:21:09;;;;;;;;;;;;;;;29.69;26.55;100732.00;4920721;29;19915;-76
2022/07/10 10:23:55;;;;;;;;;;;;;;;29.86;25.22;100729.09;4918955;29;19915;-76
2022/07/10 10:26:41;;;;;;;;;;;;;;;29.75;26.09;100733.00;4913554;29;19919;-74
2022/07/10 10:29:25;;;;;;;;;;;;;;;29.87;25.14;100725.06;4915480;29;19915;-78
2022/07/10 10:32:10;;;;;;;;;;;;;;;29.98;25.67;100717.13;4917455;29;19915;-78
2022/07/10 10:34:58;;;;;;;;;;;;;;;29.94;26.08;100708.03;4934916;29;19915;-78
2022/07/10 10:37:50;;;;;;;;;;;;;;;29.86;25.75;100710.25;4934725;29;19919;-79
2022/07/10 10:40:34;;;;;;;;;;;;;;;29.98;26.79;100708.69;4924381;29;19915;-77
2022/07/10 10:43:20;;;;;;;;;;;;;;;30.09;25.77;100697.94;4933951;29;19914;-77
2022/07/10 10:46:23;;;;;;;;;;;;;;;30.06;25.09;100693.25;4935147;29;19923;-79
2022/07/10 10:49:08;;;;;;;;;;;;;;;30.21;25.35;100693.56;4918879;29;19915;-79
2022/07/10 10:52:03;;;;;;;;;;;;;;;30.40;24.98;100690.50;4928896;29;19915;-76
2022/07/10 10:54:56;;;;;;;;;;;;;;;30.46;25.97;100691.53;4919939;29;19914;-77
2022/07/10 10:57:47;;;;;;;;;;;;;;;30.37;27.05;100680.19;4902892;29;20320;-77
2022/07/10 11:00:37;;;;;;;;;;;;;;;30.37;25.44;100683.00;4921866;29;19919;-75
2022/07/10 11:03:23;;;;;;;;;;;;;;;30.38;26.17;100675.34;4918687;29;19915;-77
2022/07/10 11:06:13;;;;;;;;;;;;;;;30.34;26.41;100680.28;4917092;29;19919;-76
2022/07/10 11:09:20;;;;;;;;;;;;;;;30.44;26.09;100668.69;4914957;29;19919;-75
2022/07/10 11:12:06;;;;;;;;;;;;;;;30.50;25.66;100671.75;4909716;29;19915;-77
2022/07/10 11:14:52;;;;;;;;;;;;;;;30.68;25.42;100659.91;4915264;29;19919;-77
2022/07/10 11:17:38;;;;;;;;;;;;;;;30.79;26.85;100654.69;4920546;28;19915;-76
2022/07/10 11:20:23;;;;;;;;;;;;;;;30.88;27.87;100657.59;4916044;29;19923;-75
2022/07/10 11:23:22;;;;;;;;;;;;;;;30.71;26.73;100659.78;4916087;29;19915;-74
2022/07/10 11:26:08;;;;;;;;;;;;;;;30.75;25.63;100654.03;4932080;29;19919;-75
2022/07/10 11:28:53;;;;;;;;;;;;;;;30.84;26.19;100651.31;4929915;29;19914;-75
2022/07/10 11:31:44;;;;;;;;;;;;;;;31.03;25.80;100658.69;4914757;29;19915;-76
2022/07/10 11:34:36;;;;;;;;;;;;;;;31.05;27.74;100649.78;4930216;29;19923;-77
2022/07/10 11:37:22;;;;;;;;;;;;;;;30.98;27.56;100653.63;4932536;29;20392;-76
2022/07/10 11:40:10;;;;;;;;;;;;;;;30.82;27.26;100645.38;4927286;29;20304;-75
2022/07/10 11:42:55;;;;;;;;;;;;;;;30.94;28.50;100650.91;4929421;29;20131;-76
2022/07/10 11:45:39;;;;;;;;;;;;;;;31.15;28.23;100649.38;4934865;29;20384;-76
2022/07/10 11:48:24;;;;;;;;;;;;;;;31.12;26.61;100650.31;4940519;29;19926;-79
2022/07/10 11:51:18;;;;;;;;;;;;;;;30.96;27.95;100647.66;4918291;29;19915;-74
2022/07/10 11:54:06;;;;;;;;;;;;;;;31.04;27.63;100637.75;4917987;29;19919;-76
2022/07/10 11:56:55;;;;;;;;;;;;;;;31.20;27.68;100637.53;4927795;29;19915;-77
2022/07/10 11:59:39;;;;;;;;;;;;;;;31.16;27.79;100634.09;4913268;29;20380;-75
2022/07/10 12:02:23;;;;;;;;;;;;;;;31.04;26.67;100631.34;4915858;29;20307;-75
2022/07/10 12:05:08;;;;;;;;;;;;;;;31.15;27.18;100626.13;4920090;29;19919;-74
2022/07/10 12:07:53;;;;;;;;;;;;;;;31.06;27.82;100634.50;4916416;29;19915;-76
2022/07/10 12:10:41;;;;;;;;;;;;;;;31.22;26.48;100626.66;4918415;29;20368;-76
2022/07/10 12:13:25;;;;;;;;;;;;;;;31.27;26.70;100616.84;4919856;29;19915;-76
2022/07/10 12:16:09;;;;;;;;;;;;;;;31.23;27.15;100611.34;4934631;29;20311;-74
2022/07/10 12:18:55;;;;;;;;;;;;;;;31.14;27.92;100611.28;4932353;29;19919;-76
2022/07/10 12:21:41;;;;;;;;;;;;;;;31.39;26.99;100605.47;4928488;29;20299;-75
2022/07/10 12:24:26;;;;;;;;;;;;;;;31.29;28.06;100608.75;4941061;29;19915;-75
2022/07/10 12:27:11;;;;;;;;;;;;;;;31.31;27.07;100607.00;4931187;29;20303;-74
2022/07/10 12:30:02;;;;;;;;;;;;;;;31.43;26.48;100602.56;4938627;29;20387;-77
2022/07/10 12:32:47;;;;;;;;;;;;;;;31.35;27.02;100604.06;4941403;29;19915;-75
2022/07/10 12:35:31;;;;;;;;;;;;;;;31.20;26.84;100595.41;4920786;29;19915;-76
2022/07/10 12:38:20;;;;;;;;;;;;;;;31.35;26.09;100602.03;4921207;29;19919;-74
2022/07/10 12:41:08;;;;;;;;;;;;;;;31.59;27.18;100604.38;4932286;29;19919;-74
2022/07/10 12:43:53;;;;;;;;;;;;;;;31.62;25.20;100603.44;4931660;29;20376;-75
2022/07/10 12:46:37;;;;;;;;;;;;;;;31.60;26.03;100608.72;4928084;29;19956;-74
2022/07/10 12:49:22;;;;;;;;;;;;;;;31.67;27.50;100598.00;4900300;29;19915;-76
2022/07/10 12:52:18;;;;;;;;;;;;;;;31.72;26.49;100596.59;4901193;29;19915;-76
2022/07/10 12:55:07;;;;;;;;;;;;;;;31.72;25.33;100590.97;4904283;29;19915;-74
2022/07/10 12:57:56;;;;;;;;;;;;;;;31.67;26.23;100591.59;4928580;29;19915;-76
2022/07/10 13:00:46;;;;;;;;;;;;;;;31.61;25.63;100590.63;4909177;29;19914;-74
2022/07/10 13:03:31;;;;;;;;;;;;;;;31.54;26.81;100576.84;4920895;29;19915;-76
2022/07/10 13:06:26;;;;;;;;;;;;;;;31.56;27.91;100591.19;4918414;29;19919;-76
2022/07/10 13:09:24;;;;;;;;;;;;;;;31.56;26.97;100580.72;4910017;29;20372;-76
2022/07/10 13:12:09;;;;;;;;;;;;;;;31.34;27.17;100586.41;4917018;29;19915;-74
2022/07/10 13:14:54;;;;;;;;;;;;;;;31.42;26.00;100584.13;4914149;29;19919;-78
2022/07/10 13:17:44;;;;;;;;;;;;;;;31.57;26.65;100576.72;4921690;29;19915;-77
2022/07/10 13:20:29;;;;;;;;;;;;;;;31.39;26.21;100574.56;4927441;29;19915;-77
2022/07/10 13:23:13;;;;;;;;;;;;;;;31.50;26.13;100573.34;4933365;29;19919;-76
2022/07/10 13:25:59;;;;;;;;;;;;;;;31.27;25.60;100578.28;4932812;29;19919;-76
2022/07/10 13:28:43;;;;;;;;;;;;;;;31.22;25.70;100576.06;4935361;29;20058;-75
2022/07/10 13:31:28;;;;;;;;;;;;;;;31.26;27.08;100573.88;4938870;29;19915;-76
2022/07/10 13:34:12;;;;;;;;;;;;;;;31.16;26.63;100566.66;4937311;29;19914;-77
2022/07/10 13:36:58;;;;;;;;;;;;;;;31.24;26.73;100567.19;4928427;29;19915;-76
2022/07/10 13:39:43;;;;;;;;;;;;;;;31.14;26.54;100563.50;4937717;28;20292;-76
2022/07/10 13:42:28;;;;;;;;;;;;;;;31.15;27.88;100558.69;4936933;29;19915;-76
2022/07/10 13:45:12;;;;;;;;;;;;;;;31.06;27.86;100564.25;4939040;28;20297;-75
2022/07/10 13:47:57;;;;;;;;;;;;;;;30.97;26.49;100570.56;4924318;29;19915;-74
2022/07/10 13:50:42;;;;;;;;;;;;;;;30.97;27.11;100562.16;4918006;29;19915;-76
2022/07/10 13:53:27;;;;;;;;;;;;;;;30.94;27.59;100555.41;4918036;29;19915;-76
2022/07/10 13:56:12;;;;;;;;;;;;;;;30.98;28.05;100550.44;4917938;29;19915;-78
2022/07/10 13:58:56;;;;;;;;;;;;;;;31.03;27.82;100551.94;4920532;29;20380;-77
2022/07/10 14:01:41;;;;;;;;;;;;;;;30.97;28.14;100560.13;4938961;29;19915;-76
2022/07/10 14:04:25;;;;;;;;;;;;;;;30.96;26.05;100549.34;4933624;29;19915;-76
2022/07/10 14:07:10;;;;;;;;;;;;;;;30.92;25.97;100546.69;4924330;29;20392;-76
2022/07/10 14:09:54;;;;;;;;;;;;;;;30.85;26.47;100537.72;4915866;29;20320;-77
2022/07/10 14:12:39;;;;;;;;;;;;;;;30.99;27.67;100540.78;4910373;29;19919;-76
2022/07/10 14:15:25;;;;;;;;;;;;;;;30.95;27.06;100540.13;4915977;29;19919;-77
2022/07/10 14:18:10;;;;;;;;;;;;;;;30.95;27.86;100539.34;4917611;29;19914;-76
2022/07/10 14:21:03;;;;;;;;;;;;;;;30.96;27.49;100540.91;4915468;29;20320;-78
2022/07/10 14:23:48;;;;;;;;;;;;;;;31.09;29.03;100538.81;4915644;29;19914;-76
2022/07/10 14:26:35;;;;;;;;;;;;;;;31.04;27.98;100536.59;4915866;29;19923;-75
2022/07/10 14:29:20;;;;;;;;;;;;;;;31.04;26.98;100536.59;4916853;29;19915;-75
2022/07/10 14:32:04;;;;;;;;;;;;;;;30.85;26.71;100518.06;4915298;29;20316;-78